sensor_id;sensor_type;location;lat;lon;timestamp;P1;durP1;ratioP1;P2;durP2;ratioP2
37543;SDS011;23385;52.038;20.322;2022-07-06T00:41:47;17.43;;;11.67;;
37543;SDS011;23385;52.038;20.322;2022-07-06T00:44:14;17.70;;;12.53;;
37543;SDS011;23385;52.038;20.322;2022-07-06T00:46:40;22.53;;;14.30;;
37543;SDS011;23385;52.038;20.322;2022-07-06T00:49:24;21.00;;;14.77;;
37543;SDS011;23385;52.038;20.322;2022-07-06T00:52:08;20.23;;;14.77;;
37543;SDS011;23385;52.038;20.322;2022-07-06T03:02:45;18.83;;;16.83;;
37543;SDS011;23385;52.038;20.322;2022-07-06T03:05:11;20.53;;;18.07;;
37543;SDS011;23385;52.038;20.322;2022-07-06T03:07:38;20.60;;;16.90;;
37543;SDS011;23385;52.038;20.322;2022-07-06T03:10:05;25.13;;;17.97;;
37543;SDS011;23385;52.038;20.322;2022-07-06T03:16:13;20.27;;;18.17;;
37543;SDS011;23385;52.038;20.322;2022-07-06T03:18:38;21.90;;;18.63;;
37543;SDS011;23385;52.038;20.322;2022-07-06T03:21:07;28.90;;;19.50;;
37543;SDS011;23385;52.038;20.322;2022-07-06T03:37:32;19.20;;;15.10;;
37543;SDS011;23385;52.038;20.322;2022-07-06T03:46:52;18.63;;;16.10;;
37543;SDS011;23385;52.038;20.322;2022-07-06T03:49:27;21.77;;;15.83;;
37543;SDS011;23385;52.038;20.322;2022-07-06T03:51:53;16.20;;;14.60;;
37543;SDS011;23385;52.038;20.322;2022-07-06T03:54:19;20.53;;;16.60;;
37543;SDS011;23385;52.038;20.322;2022-07-06T03:56:45;21.87;;;18.07;;
37543;SDS011;23385;52.038;20.322;2022-07-06T03:59:13;20.67;;;17.13;;
37543;SDS011;23385;52.038;20.322;2022-07-06T04:01:40;19.77;;;13.97;;
37543;SDS011;23385;52.038;20.322;2022-07-06T04:04:05;19.93;;;17.77;;
37543;SDS011;23385;52.038;20.322;2022-07-06T04:06:32;28.23;;;16.87;;
37543;SDS011;23385;52.038;20.322;2022-07-06T04:08:59;20.67;;;17.30;;
37543;SDS011;23385;52.038;20.322;2022-07-06T04:11:27;18.83;;;16.87;;
37543;SDS011;23385;52.038;20.322;2022-07-06T04:13:53;20.70;;;14.80;;
37543;SDS011;23385;52.038;20.322;2022-07-06T04:16:19;24.43;;;17.40;;
37543;SDS011;23385;52.038;20.322;2022-07-06T04:22:20;17.00;;;14.60;;
37543;SDS011;23385;52.038;20.322;2022-07-06T04:24:47;24.80;;;16.30;;
37543;SDS011;23385;52.038;20.322;2022-07-06T04:27:15;22.17;;;17.83;;
37543;SDS011;23385;52.038;20.322;2022-07-06T04:29:40;27.93;;;17.63;;
37543;SDS011;23385;52.038;20.322;2022-07-06T04:32:06;24.27;;;18.60;;
37543;SDS011;23385;52.038;20.322;2022-07-06T04:34:32;25.67;;;18.00;;
37543;SDS011;23385;52.038;20.322;2022-07-06T04:36:59;20.53;;;16.83;;
37543;SDS011;23385;52.038;20.322;2022-07-06T04:39:26;25.17;;;16.60;;
37543;SDS011;23385;52.038;20.322;2022-07-06T04:41:55;23.73;;;16.50;;
37543;SDS011;23385;52.038;20.322;2022-07-06T04:44:23;24.90;;;15.87;;
37543;SDS011;23385;52.038;20.322;2022-07-06T04:46:48;20.63;;;14.20;;
37543;SDS011;23385;52.038;20.322;2022-07-06T04:49:16;17.70;;;14.20;;
37543;SDS011;23385;52.038;20.322;2022-07-06T04:51:42;24.63;;;14.40;;
37543;SDS011;23385;52.038;20.322;2022-07-06T04:54:17;21.93;;;13.67;;
37543;SDS011;23385;52.038;20.322;2022-07-06T04:56:43;29.43;;;14.53;;
37543;SDS011;23385;52.038;20.322;2022-07-06T04:59:09;20.93;;;13.60;;
37543;SDS011;23385;52.038;20.322;2022-07-06T05:01:35;21.30;;;13.57;;
37543;SDS011;23385;52.038;20.322;2022-07-06T05:04:00;24.97;;;14.20;;
37543;SDS011;23385;52.038;20.322;2022-07-06T05:06:26;19.33;;;13.27;;
37543;SDS011;23385;52.038;20.322;2022-07-06T05:08:52;15.10;;;12.57;;
37543;SDS011;23385;52.038;20.322;2022-07-06T05:11:18;22.20;;;11.63;;
37543;SDS011;23385;52.038;20.322;2022-07-06T05:13:44;12.80;;;10.03;;
37543;SDS011;23385;52.038;20.322;2022-07-06T05:16:10;20.03;;;10.47;;
37543;SDS011;23385;52.038;20.322;2022-07-06T05:21:35;19.13;;;9.10;;
37543;SDS011;23385;52.038;20.322;2022-07-06T05:24:01;14.97;;;9.17;;
37543;SDS011;23385;52.038;20.322;2022-07-06T05:26:27;13.23;;;7.77;;
37543;SDS011;23385;52.038;20.322;2022-07-06T05:28:53;13.33;;;7.50;;
37543;SDS011;23385;52.038;20.322;2022-07-06T05:31:18;14.87;;;7.70;;
37543;SDS011;23385;52.038;20.322;2022-07-06T05:33:44;20.80;;;7.53;;
37543;SDS011;23385;52.038;20.322;2022-07-06T05:36:10;10.10;;;6.60;;
37543;SDS011;23385;52.038;20.322;2022-07-06T05:38:37;16.77;;;6.40;;
37543;SDS011;23385;52.038;20.322;2022-07-06T05:41:03;16.17;;;6.67;;
37543;SDS011;23385;52.038;20.322;2022-07-06T05:43:28;9.53;;;5.97;;
37543;SDS011;23385;52.038;20.322;2022-07-06T05:45:54;10.23;;;5.57;;
37543;SDS011;23385;52.038;20.322;2022-07-06T05:48:20;11.30;;;5.87;;
37543;SDS011;23385;52.038;20.322;2022-07-06T05:51:04;9.60;;;6.07;;
37543;SDS011;23385;52.038;20.322;2022-07-06T05:53:30;13.00;;;5.57;;
37543;SDS011;23385;52.038;20.322;2022-07-06T05:55:56;11.47;;;5.27;;
37543;SDS011;23385;52.038;20.322;2022-07-06T05:58:22;16.25;;;5.13;;
37543;SDS011;23385;52.038;20.322;2022-07-06T06:00:50;13.43;;;5.63;;
37543;SDS011;23385;52.038;20.322;2022-07-06T06:03:16;13.10;;;4.60;;
37543;SDS011;23385;52.038;20.322;2022-07-06T06:05:42;11.55;;;4.53;;
37543;SDS011;23385;52.038;20.322;2022-07-06T06:08:07;13.70;;;4.40;;
37543;SDS011;23385;52.038;20.322;2022-07-06T06:10:33;6.57;;;4.57;;
37543;SDS011;23385;52.038;20.322;2022-07-06T06:12:59;9.38;;;5.03;;
37543;SDS011;23385;52.038;20.322;2022-07-06T06:15:25;10.95;;;4.97;;
37543;SDS011;23385;52.038;20.322;2022-07-06T06:17:51;8.35;;;4.75;;
37543;SDS011;23385;52.038;20.322;2022-07-06T06:20:17;13.82;;;4.35;;
37543;SDS011;23385;52.038;20.322;2022-07-06T06:22:46;12.68;;;5.88;;
37543;SDS011;23385;52.038;20.322;2022-07-06T06:25:14;11.52;;;6.55;;
37543;SDS011;23385;52.038;20.322;2022-07-06T06:27:52;10.75;;;6.15;;
37543;SDS011;23385;52.038;20.322;2022-07-06T06:30:18;12.30;;;5.97;;
37543;SDS011;23385;52.038;20.322;2022-07-06T06:32:43;10.80;;;5.90;;
37543;SDS011;23385;52.038;20.322;2022-07-06T06:35:09;7.97;;;5.32;;
37543;SDS011;23385;52.038;20.322;2022-07-06T06:37:35;8.95;;;6.20;;
37543;SDS011;23385;52.038;20.322;2022-07-06T06:40:01;11.75;;;7.50;;
37543;SDS011;23385;52.038;20.322;2022-07-06T06:42:27;11.40;;;8.68;;
37543;SDS011;23385;52.038;20.322;2022-07-06T06:44:53;18.20;;;8.45;;
37543;SDS011;23385;52.038;20.322;2022-07-06T06:47:18;13.50;;;7.53;;
37543;SDS011;23385;52.038;20.322;2022-07-06T06:49:45;11.90;;;8.10;;
37543;SDS011;23385;52.038;20.322;2022-07-06T06:52:11;12.18;;;7.40;;
37543;SDS011;23385;52.038;20.322;2022-07-06T06:54:37;7.68;;;6.00;;
37543;SDS011;23385;52.038;20.322;2022-07-06T06:57:02;6.30;;;5.68;;
37543;SDS011;23385;52.038;20.322;2022-07-06T06:59:28;7.50;;;4.88;;
37543;SDS011;23385;52.038;20.322;2022-07-06T07:01:54;10.63;;;5.40;;
37543;SDS011;23385;52.038;20.322;2022-07-06T07:04:19;7.75;;;5.15;;
37543;SDS011;23385;52.038;20.322;2022-07-06T07:06:45;9.85;;;4.03;;
37543;SDS011;23385;52.038;20.322;2022-07-06T07:09:11;7.15;;;3.45;;
37543;SDS011;23385;52.038;20.322;2022-07-06T07:11:36;6.95;;;2.63;;
37543;SDS011;23385;52.038;20.322;2022-07-06T07:14:02;6.07;;;3.17;;
37543;SDS011;23385;52.038;20.322;2022-07-06T07:16:28;4.25;;;2.60;;
37543;SDS011;23385;52.038;20.322;2022-07-06T07:18:53;4.25;;;2.38;;
37543;SDS011;23385;52.038;20.322;2022-07-06T07:21:19;6.57;;;2.47;;
37543;SDS011;23385;52.038;20.322;2022-07-06T07:23:47;4.40;;;1.75;;
37543;SDS011;23385;52.038;20.322;2022-07-06T07:26:15;4.00;;;1.67;;
37543;SDS011;23385;52.038;20.322;2022-07-06T07:28:41;4.38;;;2.08;;
37543;SDS011;23385;52.038;20.322;2022-07-06T07:31:06;2.13;;;1.50;;
37543;SDS011;23385;52.038;20.322;2022-07-06T07:33:32;3.80;;;1.60;;
37543;SDS011;23385;52.038;20.322;2022-07-06T07:35:58;1.55;;;1.23;;
37543;SDS011;23385;52.038;20.322;2022-07-06T07:38:24;3.10;;;1.40;;
37543;SDS011;23385;52.038;20.322;2022-07-06T07:40:49;2.63;;;1.23;;
37543;SDS011;23385;52.038;20.322;2022-07-06T07:43:15;4.78;;;1.50;;
37543;SDS011;23385;52.038;20.322;2022-07-06T07:45:41;7.18;;;1.30;;
37543;SDS011;23385;52.038;20.322;2022-07-06T07:48:07;4.45;;;1.17;;
37543;SDS011;23385;52.038;20.322;2022-07-06T07:50:33;3.13;;;1.35;;
37543;SDS011;23385;52.038;20.322;2022-07-06T07:52:59;4.75;;;1.00;;
37543;SDS011;23385;52.038;20.322;2022-07-06T07:55:26;5.40;;;1.30;;
37543;SDS011;23385;52.038;20.322;2022-07-06T07:57:53;3.20;;;1.23;;
37543;SDS011;23385;52.038;20.322;2022-07-06T08:00:19;2.58;;;1.13;;
37543;SDS011;23385;52.038;20.322;2022-07-06T08:02:46;4.30;;;1.10;;
37543;SDS011;23385;52.038;20.322;2022-07-06T08:05:12;6.45;;;1.15;;
37543;SDS011;23385;52.038;20.322;2022-07-06T08:07:41;5.05;;;1.52;;
37543;SDS011;23385;52.038;20.322;2022-07-06T08:10:07;1.80;;;1.27;;
37543;SDS011;23385;52.038;20.322;2022-07-06T08:12:36;3.97;;;1.55;;
37543;SDS011;23385;52.038;20.322;2022-07-06T08:15:03;4.88;;;1.55;;
37543;SDS011;23385;52.038;20.322;2022-07-06T08:17:31;3.55;;;1.25;;
37543;SDS011;23385;52.038;20.322;2022-07-06T08:19:58;1.48;;;1.20;;
37543;SDS011;23385;52.038;20.322;2022-07-06T08:22:27;1.90;;;1.30;;
37543;SDS011;23385;52.038;20.322;2022-07-06T08:25:01;3.25;;;1.30;;
37543;SDS011;23385;52.038;20.322;2022-07-06T08:27:26;5.63;;;1.20;;
37543;SDS011;23385;52.038;20.322;2022-07-06T08:29:52;7.63;;;1.35;;
37543;SDS011;23385;52.038;20.322;2022-07-06T08:32:18;2.53;;;0.90;;
37543;SDS011;23385;52.038;20.322;2022-07-06T08:34:44;6.35;;;1.35;;
37543;SDS011;23385;52.038;20.322;2022-07-06T08:37:11;4.38;;;1.27;;
37543;SDS011;23385;52.038;20.322;2022-07-06T08:39:41;2.83;;;1.10;;
37543;SDS011;23385;52.038;20.322;2022-07-06T08:42:14;5.70;;;1.33;;
37543;SDS011;23385;52.038;20.322;2022-07-06T08:44:43;3.42;;;1.20;;
37543;SDS011;23385;52.038;20.322;2022-07-06T08:47:09;2.13;;;1.08;;
37543;SDS011;23385;52.038;20.322;2022-07-06T08:49:35;9.90;;;1.23;;
37543;SDS011;23385;52.038;20.322;2022-07-06T08:52:02;2.38;;;0.90;;
37543;SDS011;23385;52.038;20.322;2022-07-06T08:54:29;4.18;;;1.33;;
37543;SDS011;23385;52.038;20.322;2022-07-06T08:56:56;8.63;;;1.30;;
37543;SDS011;23385;52.038;20.322;2022-07-06T08:59:22;1.55;;;0.80;;
37543;SDS011;23385;52.038;20.322;2022-07-06T09:01:48;3.58;;;0.90;;
37543;SDS011;23385;52.038;20.322;2022-07-06T09:04:17;2.03;;;0.88;;
37543;SDS011;23385;52.038;20.322;2022-07-06T09:06:46;1.05;;;0.70;;
37543;SDS011;23385;52.038;20.322;2022-07-06T09:09:15;2.15;;;0.88;;
37543;SDS011;23385;52.038;20.322;2022-07-06T09:11:48;3.58;;;0.77;;
37543;SDS011;23385;52.038;20.322;2022-07-06T09:14:14;5.15;;;1.00;;
37543;SDS011;23385;52.038;20.322;2022-07-06T09:16:45;2.45;;;0.90;;
37543;SDS011;23385;52.038;20.322;2022-07-06T09:19:28;6.95;;;0.90;;
37543;SDS011;23385;52.038;20.322;2022-07-06T09:21:58;0.82;;;0.70;;
37543;SDS011;23385;52.038;20.322;2022-07-06T09:24:25;3.08;;;0.75;;
37543;SDS011;23385;52.038;20.322;2022-07-06T09:26:52;3.10;;;0.80;;
37543;SDS011;23385;52.038;20.322;2022-07-06T09:29:32;3.90;;;0.93;;
37543;SDS011;23385;52.038;20.322;2022-07-06T09:31:59;1.05;;;0.77;;
37543;SDS011;23385;52.038;20.322;2022-07-06T09:34:39;2.30;;;0.75;;
37543;SDS011;23385;52.038;20.322;2022-07-06T09:37:06;4.00;;;0.88;;
37543;SDS011;23385;52.038;20.322;2022-07-06T09:39:32;2.40;;;0.60;;
37543;SDS011;23385;52.038;20.322;2022-07-06T09:41:59;4.25;;;0.70;;
37543;SDS011;23385;52.038;20.322;2022-07-06T09:44:26;3.45;;;0.70;;
37543;SDS011;23385;52.038;20.322;2022-07-06T09:47:01;5.43;;;0.70;;
37543;SDS011;23385;52.038;20.322;2022-07-06T09:49:31;6.72;;;0.77;;
37543;SDS011;23385;52.038;20.322;2022-07-06T09:51:59;3.47;;;0.80;;
37543;SDS011;23385;52.038;20.322;2022-07-06T09:54:26;7.00;;;1.05;;
37543;SDS011;23385;52.038;20.322;2022-07-06T09:56:54;2.33;;;0.60;;
37543;SDS011;23385;52.038;20.322;2022-07-06T09:59:25;2.75;;;0.60;;
37543;SDS011;23385;52.038;20.322;2022-07-06T10:01:55;3.80;;;0.75;;
37543;SDS011;23385;52.038;20.322;2022-07-06T10:04:29;2.95;;;0.63;;
37543;SDS011;23385;52.038;20.322;2022-07-06T10:07:06;3.40;;;0.65;;
37543;SDS011;23385;52.038;20.322;2022-07-06T10:09:35;1.08;;;0.57;;
37543;SDS011;23385;52.038;20.322;2022-07-06T10:12:04;3.70;;;0.80;;
37543;SDS011;23385;52.038;20.322;2022-07-06T10:14:37;1.67;;;0.55;;
37543;SDS011;23385;52.038;20.322;2022-07-06T10:17:05;3.90;;;0.60;;
37543;SDS011;23385;52.038;20.322;2022-07-06T10:19:32;2.88;;;0.60;;
37543;SDS011;23385;52.038;20.322;2022-07-06T10:21:58;2.30;;;0.70;;
37543;SDS011;23385;52.038;20.322;2022-07-06T10:24:27;1.92;;;0.52;;
37543;SDS011;23385;52.038;20.322;2022-07-06T10:26:53;3.50;;;0.68;;
37543;SDS011;23385;52.038;20.322;2022-07-06T10:29:20;3.42;;;0.60;;
37543;SDS011;23385;52.038;20.322;2022-07-06T10:31:46;2.75;;;0.70;;
37543;SDS011;23385;52.038;20.322;2022-07-06T10:34:14;4.95;;;0.75;;
37543;SDS011;23385;52.038;20.322;2022-07-06T10:36:42;2.63;;;0.75;;
37543;SDS011;23385;52.038;20.322;2022-07-06T10:39:15;1.02;;;0.57;;
37543;SDS011;23385;52.038;20.322;2022-07-06T10:41:59;1.40;;;0.60;;
37543;SDS011;23385;52.038;20.322;2022-07-06T10:44:27;4.05;;;0.80;;
37543;SDS011;23385;52.038;20.322;2022-07-06T10:46:57;1.20;;;0.60;;
37543;SDS011;23385;52.038;20.322;2022-07-06T10:49:24;2.38;;;0.95;;
37543;SDS011;23385;52.038;20.322;2022-07-06T10:51:51;1.50;;;0.60;;
37543;SDS011;23385;52.038;20.322;2022-07-06T10:54:18;2.78;;;0.70;;
37543;SDS011;23385;52.038;20.322;2022-07-06T10:56:48;3.45;;;0.70;;
37543;SDS011;23385;52.038;20.322;2022-07-06T10:59:22;1.25;;;0.70;;
37543;SDS011;23385;52.038;20.322;2022-07-06T11:04:37;1.25;;;0.60;;
37543;SDS011;23385;52.038;20.322;2022-07-06T11:07:07;2.03;;;0.60;;
37543;SDS011;23385;52.038;20.322;2022-07-06T11:09:35;3.58;;;0.70;;
37543;SDS011;23385;52.038;20.322;2022-07-06T11:12:11;2.15;;;0.77;;
37543;SDS011;23385;52.038;20.322;2022-07-06T11:14:47;5.63;;;0.70;;
37543;SDS011;23385;52.038;20.322;2022-07-06T11:17:14;2.53;;;0.80;;
37543;SDS011;23385;52.038;20.322;2022-07-06T11:19:56;2.33;;;0.60;;
37543;SDS011;23385;52.038;20.322;2022-07-06T11:22:23;1.05;;;0.60;;
37543;SDS011;23385;52.038;20.322;2022-07-06T11:24:50;1.10;;;0.57;;
37543;SDS011;23385;52.038;20.322;2022-07-06T11:27:22;18.73;;;3.42;;
37543;SDS011;23385;52.038;20.322;2022-07-06T11:29:48;5.40;;;0.80;;
37543;SDS011;23385;52.038;20.322;2022-07-06T11:32:14;3.25;;;0.68;;
37543;SDS011;23385;52.038;20.322;2022-07-06T11:34:41;4.80;;;0.63;;
37543;SDS011;23385;52.038;20.322;2022-07-06T11:37:09;1.15;;;0.55;;
37543;SDS011;23385;52.038;20.322;2022-07-06T11:39:37;1.25;;;0.52;;
37543;SDS011;23385;52.038;20.322;2022-07-06T11:42:05;1.88;;;0.60;;
37543;SDS011;23385;52.038;20.322;2022-07-06T11:44:32;4.20;;;0.75;;
37543;SDS011;23385;52.038;20.322;2022-07-06T11:46:59;2.33;;;0.55;;
37543;SDS011;23385;52.038;20.322;2022-07-06T11:49:28;2.97;;;0.50;;
37543;SDS011;23385;52.038;20.322;2022-07-06T11:51:55;12.70;;;1.58;;
37543;SDS011;23385;52.038;20.322;2022-07-06T11:54:22;2.35;;;0.88;;
37543;SDS011;23385;52.038;20.322;2022-07-06T11:56:49;1.08;;;0.60;;
37543;SDS011;23385;52.038;20.322;2022-07-06T11:59:16;1.88;;;0.80;;
37543;SDS011;23385;52.038;20.322;2022-07-06T12:01:49;2.95;;;0.80;;
37543;SDS011;23385;52.038;20.322;2022-07-06T12:04:23;2.28;;;0.52;;
37543;SDS011;23385;52.038;20.322;2022-07-06T12:06:49;8.20;;;1.00;;
37543;SDS011;23385;52.038;20.322;2022-07-06T12:09:17;1.15;;;0.60;;
37543;SDS011;23385;52.038;20.322;2022-07-06T12:11:45;7.05;;;0.98;;
37543;SDS011;23385;52.038;20.322;2022-07-06T12:14:16;2.58;;;0.77;;
37543;SDS011;23385;52.038;20.322;2022-07-06T12:16:43;1.48;;;0.60;;
37543;SDS011;23385;52.038;20.322;2022-07-06T12:19:09;2.20;;;0.60;;
37543;SDS011;23385;52.038;20.322;2022-07-06T12:21:41;1.98;;;0.68;;
37543;SDS011;23385;52.038;20.322;2022-07-06T12:24:09;4.07;;;0.70;;
37543;SDS011;23385;52.038;20.322;2022-07-06T12:26:39;2.53;;;0.75;;
37543;SDS011;23385;52.038;20.322;2022-07-06T12:31:39;2.30;;;0.80;;
37543;SDS011;23385;52.038;20.322;2022-07-06T12:34:12;1.17;;;0.60;;
37543;SDS011;23385;52.038;20.322;2022-07-06T12:36:46;1.83;;;0.80;;
37543;SDS011;23385;52.038;20.322;2022-07-06T12:39:15;7.03;;;0.80;;
37543;SDS011;23385;52.038;20.322;2022-07-06T12:41:47;1.85;;;0.70;;
37543;SDS011;23385;52.038;20.322;2022-07-06T12:44:17;2.25;;;0.90;;
37543;SDS011;23385;52.038;20.322;2022-07-06T12:46:44;1.27;;;0.60;;
37543;SDS011;23385;52.038;20.322;2022-07-06T12:49:11;3.20;;;0.80;;
37543;SDS011;23385;52.038;20.322;2022-07-06T12:54:22;2.50;;;0.70;;
37543;SDS011;23385;52.038;20.322;2022-07-06T12:56:59;1.40;;;0.90;;
37543;SDS011;23385;52.038;20.322;2022-07-06T12:59:29;1.33;;;0.85;;
37543;SDS011;23385;52.038;20.322;2022-07-06T13:01:55;1.48;;;0.70;;
37543;SDS011;23385;52.038;20.322;2022-07-06T13:04:22;1.88;;;0.85;;
37543;SDS011;23385;52.038;20.322;2022-07-06T13:06:52;1.73;;;0.80;;
37543;SDS011;23385;52.038;20.322;2022-07-06T13:09:18;1.35;;;0.70;;
37543;SDS011;23385;52.038;20.322;2022-07-06T13:11:46;2.13;;;0.77;;
37543;SDS011;23385;52.038;20.322;2022-07-06T13:14:12;2.08;;;0.80;;
37543;SDS011;23385;52.038;20.322;2022-07-06T13:16:39;5.95;;;0.98;;
37543;SDS011;23385;52.038;20.322;2022-07-06T13:19:05;2.17;;;0.85;;
37543;SDS011;23385;52.038;20.322;2022-07-06T13:21:30;1.88;;;0.80;;
37543;SDS011;23385;52.038;20.322;2022-07-06T13:23:56;4.10;;;0.90;;
37543;SDS011;23385;52.038;20.322;2022-07-06T13:26:22;2.60;;;0.85;;
37543;SDS011;23385;52.038;20.322;2022-07-06T13:28:47;5.25;;;1.30;;
37543;SDS011;23385;52.038;20.322;2022-07-06T13:31:13;17.63;;;1.65;;
37543;SDS011;23385;52.038;20.322;2022-07-06T13:33:39;10.55;;;1.23;;
37543;SDS011;23385;52.038;20.322;2022-07-06T13:36:04;9.85;;;2.03;;
37543;SDS011;23385;52.038;20.322;2022-07-06T13:38:30;6.22;;;1.90;;
37543;SDS011;23385;52.038;20.322;2022-07-06T13:40:56;6.43;;;2.25;;
37543;SDS011;23385;52.038;20.322;2022-07-06T13:43:21;6.70;;;2.10;;
37543;SDS011;23385;52.038;20.322;2022-07-06T13:45:48;6.35;;;1.95;;
37543;SDS011;23385;52.038;20.322;2022-07-06T13:48:14;3.03;;;1.38;;
37543;SDS011;23385;52.038;20.322;2022-07-06T13:50:40;7.22;;;1.73;;
37543;SDS011;23385;52.038;20.322;2022-07-06T13:53:05;11.05;;;2.60;;
37543;SDS011;23385;52.038;20.322;2022-07-06T13:55:32;10.77;;;2.35;;
37543;SDS011;23385;52.038;20.322;2022-07-06T13:57:58;3.35;;;1.90;;
37543;SDS011;23385;52.038;20.322;2022-07-06T14:00:24;5.82;;;1.77;;
37543;SDS011;23385;52.038;20.322;2022-07-06T14:02:49;10.80;;;2.27;;
37543;SDS011;23385;52.038;20.322;2022-07-06T14:05:16;7.53;;;2.10;;
37543;SDS011;23385;52.038;20.322;2022-07-06T14:07:42;10.07;;;2.67;;
37543;SDS011;23385;52.038;20.322;2022-07-06T14:10:08;8.90;;;1.80;;
37543;SDS011;23385;52.038;20.322;2022-07-06T14:12:34;3.20;;;1.73;;
37543;SDS011;23385;52.038;20.322;2022-07-06T14:14:59;6.50;;;1.75;;
37543;SDS011;23385;52.038;20.322;2022-07-06T14:17:25;5.40;;;1.90;;
37543;SDS011;23385;52.038;20.322;2022-07-06T14:19:51;10.93;;;1.83;;
37543;SDS011;23385;52.038;20.322;2022-07-06T14:22:17;4.50;;;2.07;;
37543;SDS011;23385;52.038;20.322;2022-07-06T14:24:42;8.90;;;1.90;;
37543;SDS011;23385;52.038;20.322;2022-07-06T14:27:08;4.57;;;1.90;;
37543;SDS011;23385;52.038;20.322;2022-07-06T14:29:34;4.40;;;1.80;;
37543;SDS011;23385;52.038;20.322;2022-07-06T14:31:59;4.23;;;1.70;;
37543;SDS011;23385;52.038;20.322;2022-07-06T14:34:25;5.97;;;2.00;;
37543;SDS011;23385;52.038;20.322;2022-07-06T14:36:51;2.77;;;1.67;;
37543;SDS011;23385;52.038;20.322;2022-07-06T14:39:18;7.07;;;2.13;;
37543;SDS011;23385;52.038;20.322;2022-07-06T14:41:44;12.10;;;1.97;;
37543;SDS011;23385;52.038;20.322;2022-07-06T14:44:10;4.17;;;1.67;;
37543;SDS011;23385;52.038;20.322;2022-07-06T14:46:35;4.23;;;1.80;;
37543;SDS011;23385;52.038;20.322;2022-07-06T14:49:01;3.80;;;1.67;;
37543;SDS011;23385;52.038;20.322;2022-07-06T14:51:27;5.30;;;2.10;;
37543;SDS011;23385;52.038;20.322;2022-07-06T14:53:52;7.83;;;2.10;;
37543;SDS011;23385;52.038;20.322;2022-07-06T14:56:18;4.37;;;2.30;;
37543;SDS011;23385;52.038;20.322;2022-07-06T14:58:44;4.27;;;2.17;;
37543;SDS011;23385;52.038;20.322;2022-07-06T15:01:10;5.33;;;2.13;;
37543;SDS011;23385;52.038;20.322;2022-07-06T15:03:36;6.60;;;2.90;;
37543;SDS011;23385;52.038;20.322;2022-07-06T15:06:02;17.97;;;6.80;;
37543;SDS011;23385;52.038;20.322;2022-07-06T15:08:27;10.07;;;3.90;;
37543;SDS011;23385;52.038;20.322;2022-07-06T15:10:54;22.73;;;10.77;;
37543;SDS011;23385;52.038;20.322;2022-07-06T15:13:20;13.63;;;6.90;;
37543;SDS011;23385;52.038;20.322;2022-07-06T15:15:47;15.60;;;6.60;;
37543;SDS011;23385;52.038;20.322;2022-07-06T15:18:12;5.47;;;2.27;;
37543;SDS011;23385;52.038;20.322;2022-07-06T15:20:38;4.20;;;2.10;;
37543;SDS011;23385;52.038;20.322;2022-07-06T15:23:04;5.30;;;2.73;;
37543;SDS011;23385;52.038;20.322;2022-07-06T15:25:30;5.77;;;3.20;;
37543;SDS011;23385;52.038;20.322;2022-07-06T15:27:55;3.97;;;2.07;;
37543;SDS011;23385;52.038;20.322;2022-07-06T15:30:22;23.20;;;8.07;;
37543;SDS011;23385;52.038;20.322;2022-07-06T15:32:53;5.87;;;2.23;;
37543;SDS011;23385;52.038;20.322;2022-07-06T15:35:18;8.33;;;2.70;;
37543;SDS011;23385;52.038;20.322;2022-07-06T15:37:44;7.17;;;2.40;;
37543;SDS011;23385;52.038;20.322;2022-07-06T15:40:26;6.77;;;2.30;;
37543;SDS011;23385;52.038;20.322;2022-07-06T15:43:06;5.47;;;2.10;;
37543;SDS011;23385;52.038;20.322;2022-07-06T15:45:32;5.00;;;2.40;;
37543;SDS011;23385;52.038;20.322;2022-07-06T15:47:58;10.50;;;4.50;;
37543;SDS011;23385;52.038;20.322;2022-07-06T15:50:24;6.43;;;2.17;;
37543;SDS011;23385;52.038;20.322;2022-07-06T15:52:50;4.70;;;1.90;;
37543;SDS011;23385;52.038;20.322;2022-07-06T15:55:16;7.97;;;2.40;;
37543;SDS011;23385;52.038;20.322;2022-07-06T15:57:41;3.70;;;2.00;;
37543;SDS011;23385;52.038;20.322;2022-07-06T16:00:07;3.83;;;2.40;;
37543;SDS011;23385;52.038;20.322;2022-07-06T16:02:33;6.33;;;2.47;;
37543;SDS011;23385;52.038;20.322;2022-07-06T16:05:00;6.20;;;2.40;;
37543;SDS011;23385;52.038;20.322;2022-07-06T16:07:26;8.97;;;4.50;;
37543;SDS011;23385;52.038;20.322;2022-07-06T16:09:54;3.60;;;2.03;;
37543;SDS011;23385;52.038;20.322;2022-07-06T16:12:20;75.23;;;21.60;;
37543;SDS011;23385;52.038;20.322;2022-07-06T16:14:45;11.17;;;4.10;;
37543;SDS011;23385;52.038;20.322;2022-07-06T16:17:11;16.00;;;4.97;;
37543;SDS011;23385;52.038;20.322;2022-07-06T16:19:37;13.43;;;3.13;;
37543;SDS011;23385;52.038;20.322;2022-07-06T16:22:02;10.75;;;4.07;;
37543;SDS011;23385;52.038;20.322;2022-07-06T16:24:28;5.47;;;2.67;;
37543;SDS011;23385;52.038;20.322;2022-07-06T16:26:53;5.57;;;3.00;;
37543;SDS011;23385;52.038;20.322;2022-07-06T16:29:19;5.23;;;2.20;;
37543;SDS011;23385;52.038;20.322;2022-07-06T16:31:45;11.30;;;3.23;;
37543;SDS011;23385;52.038;20.322;2022-07-06T16:34:10;17.17;;;5.27;;
37543;SDS011;23385;52.038;20.322;2022-07-06T16:36:40;42.40;;;12.80;;
37543;SDS011;23385;52.038;20.322;2022-07-06T16:39:11;3.67;;;2.20;;
37543;SDS011;23385;52.038;20.322;2022-07-06T16:41:37;15.23;;;6.27;;
37543;SDS011;23385;52.038;20.322;2022-07-06T16:44:02;3.70;;;2.23;;
37543;SDS011;23385;52.038;20.322;2022-07-06T16:46:29;13.03;;;4.40;;
37543;SDS011;23385;52.038;20.322;2022-07-06T16:48:55;10.27;;;3.80;;
37543;SDS011;23385;52.038;20.322;2022-07-06T16:51:20;4.63;;;2.07;;
37543;SDS011;23385;52.038;20.322;2022-07-06T16:53:46;5.00;;;2.37;;
37543;SDS011;23385;52.038;20.322;2022-07-06T16:56:12;8.37;;;2.10;;
37543;SDS011;23385;52.038;20.322;2022-07-06T16:58:37;7.70;;;3.30;;
37543;SDS011;23385;52.038;20.322;2022-07-06T17:01:03;6.57;;;1.97;;
37543;SDS011;23385;52.038;20.322;2022-07-06T17:03:29;10.00;;;4.07;;
37543;SDS011;23385;52.038;20.322;2022-07-06T17:05:55;11.07;;;4.07;;
37543;SDS011;23385;52.038;20.322;2022-07-06T17:08:21;17.88;;;5.57;;
37543;SDS011;23385;52.038;20.322;2022-07-06T17:10:47;13.30;;;4.38;;
37543;SDS011;23385;52.038;20.322;2022-07-06T17:13:12;2.92;;;2.00;;
37543;SDS011;23385;52.038;20.322;2022-07-06T17:15:38;8.60;;;2.58;;
37543;SDS011;23385;52.038;20.322;2022-07-06T17:18:04;4.45;;;2.50;;
37543;SDS011;23385;52.038;20.322;2022-07-06T17:20:30;10.85;;;4.53;;
37543;SDS011;23385;52.038;20.322;2022-07-06T17:22:57;5.85;;;2.58;;
37543;SDS011;23385;52.038;20.322;2022-07-06T17:25:23;5.28;;;2.55;;
37543;SDS011;23385;52.038;20.322;2022-07-06T17:27:49;4.32;;;1.85;;
37543;SDS011;23385;52.038;20.322;2022-07-06T17:30:15;4.38;;;2.10;;
37543;SDS011;23385;52.038;20.322;2022-07-06T17:32:41;10.65;;;4.20;;
37543;SDS011;23385;52.038;20.322;2022-07-06T17:35:07;6.03;;;1.90;;
37543;SDS011;23385;52.038;20.322;2022-07-06T17:37:32;1.95;;;1.30;;
37543;SDS011;23385;52.038;20.322;2022-07-06T17:39:58;10.75;;;4.00;;
37543;SDS011;23385;52.038;20.322;2022-07-06T17:42:24;4.50;;;1.90;;
37543;SDS011;23385;52.038;20.322;2022-07-06T17:44:50;6.15;;;2.55;;
37543;SDS011;23385;52.038;20.322;2022-07-06T17:47:17;14.43;;;4.63;;
37543;SDS011;23385;52.038;20.322;2022-07-06T17:49:42;13.40;;;3.33;;
37543;SDS011;23385;52.038;20.322;2022-07-06T17:52:08;33.65;;;11.95;;
37543;SDS011;23385;52.038;20.322;2022-07-06T17:54:40;19.67;;;7.10;;
37543;SDS011;23385;52.038;20.322;2022-07-06T17:57:07;28.17;;;8.13;;